createdAt,value
2022-12-23T00:01:28.153Z,78.40
2022-12-23T00:03:59.124Z,72.03
2022-12-23T00:06:26.624Z,78.78
2022-12-23T00:08:53.966Z,80.97
2022-12-23T00:11:21.203Z,75.55
2022-12-23T00:13:48.168Z,78.50
2022-12-23T00:16:15.683Z,75.72
2022-12-23T00:18:43.376Z,80.10
2022-12-23T00:21:16.457Z,80.50
2022-12-23T00:23:46.174Z,89.80
2022-12-23T00:26:15.787Z,81.23
2022-12-23T00:28:43.165Z,87.00
2022-12-23T00:31:10.898Z,89.82
2022-12-23T00:33:40.726Z,87.93
2022-12-23T00:36:16.432Z,98.80
2022-12-23T00:38:43.493Z,95.83
2022-12-23T00:41:16.592Z,88.95
2022-12-23T00:43:43.572Z,79.88
2022-12-23T00:46:10.512Z,80.70
2022-12-23T00:48:37.560Z,86.03
2022-12-23T00:51:04.607Z,88.37
2022-12-23T00:53:31.581Z,89.85
2022-12-23T00:55:58.556Z,88.45
2022-12-23T00:58:25.576Z,89.10
2022-12-23T01:00:53.818Z,87.18
2022-12-23T01:03:20.860Z,89.63
2022-12-23T01:05:47.806Z,86.50
2022-12-23T01:08:14.715Z,89.40
2022-12-23T01:10:41.716Z,90.97
2022-12-23T01:13:08.595Z,91.93
2022-12-23T01:15:35.533Z,94.67
2022-12-23T01:18:02.397Z,91.82
2022-12-23T01:20:29.347Z,94.43
2022-12-23T01:22:56.227Z,89.90
2022-12-23T01:25:23.341Z,92.70
2022-12-23T01:27:50.197Z,78.60
2022-12-23T01:30:17.284Z,60.58
2022-12-23T01:32:44.191Z,54.80
2022-12-23T01:35:11.137Z,56.33
2022-12-23T01:37:37.969Z,57.78
2022-12-23T01:40:08.340Z,63.27
2022-12-23T01:42:35.209Z,65.47
2022-12-23T01:45:12.223Z,68.57
2022-12-23T01:47:44.921Z,65.07
2022-12-23T01:50:40.710Z,65.97
2022-12-23T01:53:25.278Z,62.70
2022-12-23T01:56:02.305Z,63.40
2022-12-23T01:58:42.521Z,58.72
2022-12-23T02:01:10.981Z,51.95
2022-12-23T02:03:38.143Z,61.70
2022-12-23T02:06:05.704Z,65.73
2022-12-23T02:08:32.608Z,65.65
2022-12-23T02:11:35.168Z,66.45
2022-12-23T02:14:02.078Z,67.47
2022-12-23T02:16:34.125Z,64.43
2022-12-23T02:19:18.103Z,60.07
2022-12-23T02:22:08.151Z,62.50
2022-12-23T02:24:49.360Z,68.70
2022-12-23T02:27:23.895Z,71.55
2022-12-23T02:30:14.572Z,74.93
2022-12-23T02:33:15.026Z,74.53
2022-12-23T02:36:06.348Z,69.88
2022-12-23T02:38:47.983Z,76.95
2022-12-23T02:41:28.829Z,71.82
2022-12-23T02:44:08.515Z,67.13
2022-12-23T02:46:49.562Z,75.13
2022-12-23T02:49:20.853Z,73.53
2022-12-23T02:51:53.980Z,70.97
2022-12-23T02:54:29.078Z,70.50
2022-12-23T02:56:58.006Z,67.78
2022-12-23T02:59:29.503Z,74.07
2022-12-23T03:01:57.616Z,66.65
2022-12-23T03:04:24.698Z,72.22
2022-12-23T03:06:56.679Z,79.65
2022-12-23T03:10:02.286Z,76.43
2022-12-23T03:12:47.085Z,67.07
2022-12-23T03:15:37.629Z,67.10
2022-12-23T03:18:27.247Z,71.00
2022-12-23T03:21:03.777Z,54.35
2022-12-23T03:23:35.236Z,68.80
2022-12-23T03:26:22.467Z,60.33
2022-12-23T03:28:58.440Z,64.88
2022-12-23T03:31:30.097Z,70.10
2022-12-23T03:34:02.465Z,64.13
2022-12-23T03:36:34.913Z,62.83
2022-12-23T03:39:05.740Z,67.00
2022-12-23T03:41:39.746Z,63.42
2022-12-23T03:44:16.279Z,56.38
2022-12-23T03:47:15.234Z,63.83
2022-12-23T03:49:53.482Z,58.42
2022-12-23T03:52:31.263Z,61.33
2022-12-23T03:55:05.026Z,60.35
2022-12-23T03:57:58.078Z,60.65
2022-12-23T04:00:28.936Z,56.13
2022-12-23T04:02:55.960Z,65.47
2022-12-23T04:05:30.068Z,61.40
2022-12-23T04:08:13.359Z,59.38
2022-12-23T04:10:40.721Z,62.50
2022-12-23T04:13:08.155Z,55.60
2022-12-23T04:15:41.087Z,57.72
2022-12-23T04:18:09.270Z,54.97
2022-12-23T04:20:36.686Z,61.40
2022-12-23T04:23:03.816Z,61.30
2022-12-23T04:25:30.783Z,64.28
2022-12-23T04:27:57.594Z,64.10
2022-12-23T04:30:29.538Z,65.10
2022-12-23T04:33:00.821Z,60.60
2022-12-23T04:35:27.594Z,64.32
2022-12-23T04:37:54.506Z,68.28
2022-12-23T04:40:21.439Z,69.47
2022-12-23T04:42:48.422Z,58.07
2022-12-23T04:45:15.530Z,59.67
2022-12-23T04:47:42.506Z,62.72
2022-12-23T04:50:14.894Z,58.05
2022-12-23T04:52:42.650Z,62.63
2022-12-23T04:55:10.430Z,62.43
2022-12-23T04:57:37.336Z,59.38
2022-12-23T05:00:05.807Z,61.67
2022-12-23T05:02:32.773Z,62.05
2022-12-23T05:04:59.822Z,50.42
2022-12-23T05:07:26.861Z,50.67
2022-12-23T05:09:53.725Z,50.30
2022-12-23T05:12:20.717Z,61.00
2022-12-23T05:14:47.600Z,58.45
2022-12-23T05:17:14.495Z,69.80
2022-12-23T05:19:41.373Z,61.20
2022-12-23T05:22:08.222Z,59.45
2022-12-23T05:24:35.050Z,62.65
2022-12-23T05:27:01.922Z,63.42
2022-12-23T05:29:28.863Z,62.10
2022-12-23T05:31:55.896Z,62.73
2022-12-23T05:34:22.861Z,57.88
2022-12-23T05:36:49.961Z,59.67
2022-12-23T05:39:16.811Z,60.00
2022-12-23T05:41:43.916Z,59.95
2022-12-23T05:44:10.721Z,56.60
2022-12-23T05:46:37.732Z,56.85
2022-12-23T05:49:04.743Z,59.22
2022-12-23T05:51:31.626Z,61.80
2022-12-23T05:53:58.629Z,57.78
2022-12-23T05:56:25.608Z,58.47
2022-12-23T05:58:52.494Z,56.58
2022-12-23T06:01:19.432Z,58.72
2022-12-23T06:03:46.357Z,53.95
2022-12-23T06:06:13.398Z,45.10
2022-12-23T06:08:40.387Z,55.33
2022-12-23T06:11:07.246Z,45.17
2022-12-23T06:13:34.119Z,60.53
2022-12-23T06:16:01.042Z,64.15
2022-12-23T06:18:27.965Z,58.95
2022-12-23T06:20:54.853Z,63.67
2022-12-23T06:23:21.726Z,63.42
2022-12-23T06:25:48.682Z,50.55
2022-12-23T06:28:15.536Z,60.55
2022-12-23T06:30:42.569Z,65.03
2022-12-23T06:33:09.376Z,54.53
2022-12-23T06:35:36.200Z,64.00
2022-12-23T06:38:05.484Z,74.28
2022-12-23T06:40:35.704Z,70.65
2022-12-23T06:43:02.602Z,68.80
2022-12-23T06:45:29.652Z,67.87
2022-12-23T06:47:56.652Z,71.50
2022-12-23T06:50:23.568Z,74.80
2022-12-23T06:52:50.866Z,71.47
2022-12-23T06:55:17.704Z,67.88
2022-12-23T06:57:45.061Z,68.93
2022-12-23T07:00:12.715Z,60.70
2022-12-23T07:02:39.701Z,62.38
2022-12-23T07:05:06.986Z,56.53
2022-12-23T07:07:34.064Z,61.22
2022-12-23T07:10:01.051Z,59.20
2022-12-23T07:12:28.011Z,67.30
2022-12-23T07:14:55.224Z,61.15
2022-12-23T07:17:22.113Z,58.63
2022-12-23T07:19:49.070Z,58.60
2022-12-23T07:22:15.992Z,71.07
2022-12-23T07:24:43.106Z,70.57
2022-12-23T07:27:10.001Z,86.70
2022-12-23T07:29:36.991Z,70.63
2022-12-23T07:32:04.049Z,114.63
2022-12-23T07:34:31.360Z,86.87
2022-12-23T07:37:01.172Z,107.88
2022-12-23T07:39:28.462Z,152.38
2022-12-23T07:42:16.547Z,95.97
2022-12-23T07:44:42.440Z,128.90
2022-12-23T07:47:09.237Z,83.57
2022-12-23T07:49:36.099Z,82.28
2022-12-23T07:52:03.147Z,76.15
2022-12-23T07:54:30.238Z,72.72
2022-12-23T07:56:57.351Z,101.30
2022-12-23T07:59:26.441Z,72.10
2022-12-23T08:01:53.411Z,79.13
2022-12-23T08:04:20.457Z,75.97
2022-12-23T08:06:47.584Z,76.90
2022-12-23T08:09:14.433Z,78.38
2022-12-23T08:11:41.474Z,75.83
2022-12-23T08:14:08.499Z,70.88
2022-12-23T08:16:41.327Z,75.88
2022-12-23T08:19:10.514Z,70.18
2022-12-23T08:21:37.361Z,73.18
2022-12-23T08:24:04.640Z,78.50
2022-12-23T08:26:32.769Z,74.05
2022-12-23T08:29:00.937Z,72.43
2022-12-23T08:31:31.738Z,77.50
2022-12-23T08:34:00.395Z,74.95
2022-12-23T08:36:38.142Z,84.77
2022-12-23T08:39:08.326Z,77.47
2022-12-23T08:41:42.025Z,85.57
2022-12-23T08:44:22.270Z,84.55
2022-12-23T08:46:49.576Z,113.03
2022-12-23T08:49:18.911Z,88.27
2022-12-23T08:51:45.845Z,81.88
2022-12-23T08:54:12.999Z,139.77
2022-12-23T08:56:41.897Z,114.65
2022-12-23T08:59:18.760Z,92.45
2022-12-23T09:01:47.258Z,98.90
2022-12-23T09:04:14.591Z,111.90
2022-12-23T09:06:42.577Z,110.82
2022-12-23T09:09:12.805Z,91.82
2022-12-23T09:11:39.863Z,100.72
2022-12-23T09:14:07.191Z,84.17
2022-12-23T09:16:34.428Z,82.05
2022-12-23T09:19:01.383Z,85.55
2022-12-23T09:21:28.486Z,84.38
2022-12-23T09:23:55.386Z,84.03
2022-12-23T09:26:25.211Z,80.77
2022-12-23T09:28:52.573Z,91.68
2022-12-23T09:31:20.832Z,93.10
2022-12-23T09:33:49.736Z,86.68
2022-12-23T09:36:17.089Z,91.13
2022-12-23T09:38:44.169Z,88.10
2022-12-23T09:41:55.098Z,95.05
2022-12-23T09:44:37.911Z,99.22
2022-12-23T09:47:17.486Z,94.68
2022-12-23T09:49:54.407Z,92.82
2022-12-23T09:52:31.541Z,95.90
2022-12-23T09:54:58.494Z,92.22
2022-12-23T09:57:39.895Z,97.00
2022-12-23T10:00:18.843Z,92.78
2022-12-23T10:03:00.852Z,100.80
2022-12-23T10:05:27.785Z,106.73
2022-12-23T10:08:18.055Z,95.05
2022-12-23T10:10:54.239Z,88.63
2022-12-23T10:13:32.760Z,107.03
2022-12-23T10:16:04.418Z,92.82
2022-12-23T10:18:45.268Z,98.27
2022-12-23T10:21:42.309Z,95.93
2022-12-23T10:24:23.431Z,96.15
2022-12-23T10:27:16.563Z,101.55
2022-12-23T10:29:43.672Z,98.45
2022-12-23T10:32:33.353Z,98.60
2022-12-23T10:35:31.044Z,97.30
2022-12-23T10:38:21.199Z,85.53
2022-12-23T10:40:48.156Z,96.60
2022-12-23T10:43:27.360Z,100.72
2022-12-23T10:46:08.933Z,93.60
2022-12-23T10:48:51.172Z,79.45
2022-12-23T10:51:36.759Z,91.22
2022-12-23T10:54:15.554Z,80.30
2022-12-23T10:56:43.963Z,81.95
2022-12-23T10:59:15.125Z,76.80
2022-12-23T11:01:49.320Z,79.53
2022-12-23T11:04:26.735Z,77.20
2022-12-23T11:07:18.296Z,74.10
2022-12-23T11:09:54.442Z,72.75
2022-12-23T11:12:40.507Z,66.20
2022-12-23T11:15:28.395Z,62.67
2022-12-23T11:18:19.734Z,68.07
2022-12-23T11:21:03.190Z,63.90
2022-12-23T11:23:35.591Z,54.45
2022-12-23T11:26:11.170Z,66.87
2022-12-23T11:28:48.462Z,68.90
2022-12-23T11:31:15.778Z,56.70
2022-12-23T11:34:01.369Z,58.28
2022-12-23T11:36:30.280Z,56.75
2022-12-23T11:39:15.127Z,47.50
2022-12-23T11:41:48.142Z,56.13
2022-12-23T11:44:50.903Z,60.72
2022-12-23T11:47:23.693Z,57.55
2022-12-23T11:50:02.324Z,64.68
2022-12-23T11:52:31.511Z,62.10
2022-12-23T11:55:01.787Z,60.63
2022-12-23T11:57:46.726Z,66.03
2022-12-23T12:00:26.400Z,57.63
2022-12-23T12:02:56.702Z,44.40
2022-12-23T12:05:51.851Z,43.77
2022-12-23T12:08:24.977Z,42.42
2022-12-23T12:10:53.988Z,44.10
2022-12-23T12:13:36.329Z,49.78
2022-12-23T12:16:12.454Z,46.90
2022-12-23T12:18:42.313Z,51.30
2022-12-23T12:21:17.994Z,48.45
2022-12-23T12:24:14.822Z,51.33
2022-12-23T12:26:42.604Z,50.50
2022-12-23T12:29:36.401Z,53.58
2022-12-23T12:32:04.846Z,46.90
2022-12-23T12:34:50.084Z,41.50
2022-12-23T12:37:46.859Z,46.47
2022-12-23T12:40:35.167Z,49.60
2022-12-23T12:43:26.455Z,48.85
2022-12-23T12:46:14.972Z,44.60
2022-12-23T12:48:56.967Z,45.17
2022-12-23T12:51:43.752Z,49.25
2022-12-23T12:54:22.454Z,49.05
2022-12-23T12:56:52.988Z,45.08
2022-12-23T12:59:38.298Z,48.63
2022-12-23T13:02:27.096Z,43.78
2022-12-23T13:05:12.393Z,44.80
2022-12-23T13:08:10.992Z,45.90
2022-12-23T13:10:53.623Z,49.40
2022-12-23T13:13:32.239Z,47.63
2022-12-23T13:16:11.392Z,48.50
2022-12-23T13:18:53.491Z,47.90
2022-12-23T13:21:31.222Z,49.13
2022-12-23T13:24:12.339Z,36.58
2022-12-23T13:26:45.121Z,45.93
2022-12-23T13:29:54.585Z,47.83
2022-12-23T13:32:37.473Z,47.38
2022-12-23T13:35:32.716Z,49.40
2022-12-23T13:38:02.521Z,47.30
2022-12-23T13:40:38.130Z,42.50
2022-12-23T13:43:26.264Z,43.88
2022-12-23T13:45:55.046Z,42.00
2022-12-23T13:48:36.540Z,43.30
2022-12-23T13:51:25.105Z,34.38
2022-12-23T13:54:04.955Z,47.20
2022-12-23T13:57:26.288Z,38.65
2022-12-23T14:00:16.833Z,44.22
2022-12-23T14:02:52.302Z,41.90
2022-12-23T14:05:41.271Z,42.50
2022-12-23T14:08:28.262Z,38.77
2022-12-23T14:11:11.413Z,36.08
2022-12-23T14:13:51.939Z,34.42
2022-12-23T14:16:27.939Z,43.50
2022-12-23T14:19:22.885Z,35.90
2022-12-23T14:22:18.532Z,44.70
2022-12-23T14:25:36.644Z,43.83
2022-12-23T14:28:22.298Z,50.38
2022-12-23T14:30:49.461Z,47.72
2022-12-23T14:33:31.247Z,51.25
2022-12-23T14:36:15.479Z,52.50
2022-12-23T14:38:42.529Z,55.03
2022-12-23T14:41:20.370Z,52.17
2022-12-23T14:43:47.150Z,53.00
2022-12-23T14:46:42.073Z,50.40
2022-12-23T14:49:38.848Z,58.77
2022-12-23T14:52:44.697Z,58.75
2022-12-23T14:55:32.318Z,54.42
2022-12-23T14:58:13.524Z,54.97
2022-12-23T15:01:09.343Z,55.00
2022-12-23T15:03:43.565Z,55.57
2022-12-23T15:06:16.647Z,53.20
2022-12-23T15:08:46.260Z,56.78
2022-12-23T15:11:22.087Z,51.80
2022-12-23T15:13:51.787Z,49.88
2022-12-23T15:16:19.190Z,48.20
2022-12-23T15:18:56.958Z,50.13
2022-12-23T15:21:34.759Z,48.75
2022-12-23T15:24:03.025Z,49.13
2022-12-23T15:26:32.772Z,52.63
2022-12-23T15:29:00.698Z,50.93
2022-12-23T15:31:29.901Z,42.15
2022-12-23T15:34:03.357Z,51.30
2022-12-23T15:36:33.565Z,46.90
2022-12-23T15:39:01.618Z,49.95
2022-12-23T15:41:29.381Z,46.87
2022-12-23T15:43:57.854Z,52.60
2022-12-23T15:46:30.053Z,52.72
2022-12-23T15:48:57.904Z,52.00
2022-12-23T15:54:38.835Z,48.67
2022-12-23T15:57:06.100Z,50.20
2022-12-23T15:59:38.619Z,48.45
2022-12-23T16:05:31.307Z,50.78
2022-12-23T16:08:16.635Z,49.30
2022-12-23T16:10:57.161Z,50.33
2022-12-23T16:13:24.427Z,48.40
2022-12-23T16:15:51.450Z,45.97
2022-12-23T16:18:24.840Z,45.80
2022-12-23T16:20:58.517Z,46.13
2022-12-23T16:23:30.173Z,42.65
2022-12-23T16:26:02.316Z,49.65
2022-12-23T16:28:44.325Z,49.55
2022-12-23T16:31:15.157Z,57.63
2022-12-23T16:33:44.979Z,58.00
2022-12-23T16:36:36.552Z,64.40
2022-12-23T16:39:07.407Z,69.13
2022-12-23T16:41:34.840Z,66.53
2022-12-23T16:44:02.366Z,60.08
2022-12-23T16:46:33.754Z,52.67
2022-12-23T16:49:04.817Z,50.75
2022-12-23T16:51:32.734Z,49.95
2022-12-23T16:54:01.324Z,60.35
2022-12-23T16:56:34.452Z,63.85
2022-12-23T16:59:01.697Z,59.00
2022-12-23T17:01:31.049Z,58.75
2022-12-23T17:03:58.169Z,53.63
2022-12-23T17:06:25.753Z,58.85
2022-12-23T17:08:53.640Z,60.17
2022-12-23T17:11:37.671Z,55.47
2022-12-23T17:14:11.891Z,56.35
2022-12-23T17:16:42.279Z,52.78
2022-12-23T17:19:09.177Z,47.50
2022-12-23T17:21:36.898Z,49.53
2022-12-23T17:24:12.744Z,53.87
2022-12-23T17:26:39.685Z,43.90
2022-12-23T17:29:07.058Z,37.28
2022-12-23T17:31:35.016Z,35.28
2022-12-23T17:34:02.282Z,35.67
2022-12-23T17:36:29.973Z,39.57
2022-12-23T17:38:57.643Z,40.80
2022-12-23T17:41:29.820Z,40.95
2022-12-23T17:43:57.379Z,39.80
2022-12-23T17:46:25.122Z,39.60
2022-12-23T17:48:52.804Z,42.13
2022-12-23T17:51:22.235Z,39.25
2022-12-23T17:53:56.819Z,37.15
2022-12-23T17:56:25.134Z,43.47
2022-12-23T17:58:52.298Z,38.58
2022-12-23T18:01:31.508Z,43.77
2022-12-23T18:03:59.902Z,48.03
2022-12-23T18:06:28.921Z,64.68
2022-12-23T18:08:56.147Z,61.03
2022-12-23T18:11:25.943Z,63.83
2022-12-23T18:13:54.106Z,65.03
2022-12-23T18:16:21.091Z,62.78
2022-12-23T18:18:48.283Z,67.03
2022-12-23T18:21:22.628Z,59.42
2022-12-23T18:23:50.644Z,62.78
2022-12-23T18:26:17.825Z,61.33
2022-12-23T18:28:45.311Z,76.57
2022-12-23T18:31:24.919Z,67.03
2022-12-23T18:33:52.028Z,64.10
2022-12-23T18:36:24.827Z,57.00
2022-12-23T18:38:52.819Z,65.67
2022-12-23T18:41:21.158Z,66.40
2022-12-23T18:43:48.475Z,156.10
2022-12-23T18:46:15.714Z,145.32
2022-12-23T18:48:43.065Z,104.28
2022-12-23T18:51:15.485Z,77.67
2022-12-23T18:53:42.563Z,61.22
2022-12-23T18:56:16.945Z,75.28
2022-12-23T18:58:43.859Z,67.43
2022-12-23T19:01:15.812Z,123.85
2022-12-23T19:03:43.820Z,83.30
2022-12-23T19:06:13.877Z,72.65
2022-12-23T19:08:42.216Z,81.15
2022-12-23T19:11:17.846Z,78.82
2022-12-23T19:13:45.468Z,67.50
2022-12-23T19:16:17.095Z,70.60
2022-12-23T19:18:44.608Z,67.80
2022-12-23T19:21:11.964Z,62.67
2022-12-23T19:23:43.085Z,60.60
2022-12-23T19:26:11.729Z,71.15
2022-12-23T19:28:39.331Z,75.23
2022-12-23T19:31:11.843Z,64.40
2022-12-23T19:33:40.820Z,66.22
2022-12-23T19:36:22.474Z,68.25
2022-12-23T19:38:49.686Z,65.75
2022-12-23T19:41:17.143Z,66.33
2022-12-23T19:43:46.281Z,59.75
2022-12-23T19:46:14.430Z,65.72
2022-12-23T19:48:41.742Z,61.20
2022-12-23T19:51:11.651Z,70.82
2022-12-23T19:53:41.371Z,64.83
2022-12-23T19:56:13.181Z,66.32
2022-12-23T19:58:42.211Z,72.72
2022-12-23T20:01:11.127Z,60.70
2022-12-23T20:03:39.224Z,50.53
2022-12-23T20:06:08.572Z,38.40
2022-12-23T20:08:35.638Z,37.55
2022-12-23T20:11:07.928Z,41.22
2022-12-23T20:13:35.951Z,39.30
2022-12-23T20:16:03.793Z,41.17
2022-12-23T20:18:30.917Z,35.33
2022-12-23T20:20:57.825Z,39.60
2022-12-23T20:23:25.380Z,39.42
2022-12-23T20:25:52.189Z,40.45
2022-12-23T20:28:19.295Z,35.03
2022-12-23T20:30:47.302Z,37.80
2022-12-23T20:33:15.736Z,31.25
2022-12-23T20:35:42.604Z,35.35
2022-12-23T20:38:09.617Z,34.75
2022-12-23T20:40:36.487Z,36.70
2022-12-23T20:43:03.418Z,36.37
2022-12-23T20:45:30.386Z,41.03
2022-12-23T20:47:57.326Z,46.20
2022-12-23T20:50:24.330Z,50.03
2022-12-23T20:52:51.262Z,71.13
2022-12-23T20:55:18.317Z,72.07
2022-12-23T20:57:45.579Z,69.40
2022-12-23T21:00:13.197Z,71.88
2022-12-23T21:02:40.410Z,68.18
2022-12-23T21:05:07.573Z,66.68
2022-12-23T21:07:34.572Z,67.43
2022-12-23T21:10:01.437Z,68.35
2022-12-23T21:12:28.410Z,66.63
2022-12-23T21:14:55.359Z,66.72
2022-12-23T21:17:22.342Z,63.00
2022-12-23T21:19:49.376Z,56.33
2022-12-23T21:22:16.301Z,64.22
2022-12-23T21:24:43.151Z,67.10
2022-12-23T21:27:09.977Z,59.00
2022-12-23T21:29:36.818Z,58.15
2022-12-23T21:32:03.879Z,62.07
2022-12-23T21:34:30.894Z,58.45
2022-12-23T21:36:57.848Z,57.10
2022-12-23T21:39:24.905Z,48.10
2022-12-23T21:41:51.853Z,64.43
2022-12-23T21:44:18.892Z,61.97
2022-12-23T21:46:45.889Z,66.45
2022-12-23T21:49:12.786Z,60.53
2022-12-23T21:51:41.293Z,57.75
2022-12-23T21:54:11.178Z,60.80
2022-12-23T21:56:39.969Z,61.13
2022-12-23T21:59:10.917Z,62.97
2022-12-23T22:01:38.362Z,62.33
2022-12-23T22:04:05.782Z,56.33
2022-12-23T22:06:36.666Z,55.40
2022-12-23T22:09:07.533Z,56.47
2022-12-23T22:11:36.344Z,56.58
2022-12-23T22:14:05.564Z,61.85
2022-12-23T22:16:34.571Z,61.65
2022-12-23T22:19:02.393Z,61.83
2022-12-23T22:21:31.380Z,59.73
2022-12-23T22:23:58.779Z,62.75
2022-12-23T22:26:31.146Z,65.82
2022-12-23T22:29:00.685Z,65.20
2022-12-23T22:31:42.271Z,68.50
2022-12-23T22:34:21.707Z,67.13
2022-12-23T22:36:49.588Z,59.53
2022-12-23T22:39:20.953Z,62.83
2022-12-23T22:41:50.013Z,62.42
2022-12-23T22:44:16.833Z,60.40
2022-12-23T22:46:44.112Z,56.50
2022-12-23T22:49:13.021Z,62.95
2022-12-23T22:51:41.413Z,64.40
2022-12-23T22:54:09.457Z,62.47
2022-12-23T22:56:36.402Z,62.95
2022-12-23T22:59:03.665Z,64.87
2022-12-23T23:01:35.717Z,63.58
2022-12-23T23:04:04.473Z,70.88
2022-12-23T23:06:34.339Z,64.40
2022-12-23T23:09:01.491Z,62.90
2022-12-23T23:11:36.578Z,65.43
2022-12-23T23:14:03.577Z,64.72
2022-12-23T23:16:30.663Z,55.75
2022-12-23T23:18:58.173Z,57.53
2022-12-23T23:21:25.765Z,60.22
2022-12-23T23:23:52.909Z,55.90
2022-12-23T23:26:20.720Z,59.13
2022-12-23T23:28:48.313Z,62.42
2022-12-23T23:34:02.151Z,57.13
2022-12-23T23:36:29.085Z,59.27
2022-12-23T23:38:56.179Z,60.83
2022-12-23T23:41:24.167Z,61.75
2022-12-23T23:43:51.834Z,60.80
2022-12-23T23:46:18.944Z,55.03
2022-12-23T23:48:46.206Z,58.27
2022-12-23T23:51:13.169Z,56.88
2022-12-23T23:53:40.706Z,54.13
2022-12-23T23:56:08.910Z,60.20
2022-12-23T23:58:36.656Z,48.08
